Time;durP1;ratioP1;P1;durP2;ratioP2;P2;SDS_P1;SDS_P2;PMS_P1;PMS_P2;Temp;Humidity;BMP_temperature;BMP_pressure;BME280_temperature;BME280_humidity;BME280_pressure;Samples;Min_cycle;Max_cycle;Signal;HPM_P1;HPM_P2
2024/03/04 00:00:52;;;;;;;29.20;18.60;;;;;;;;;;103705;1291;544979;-71
2024/03/04 00:04:27;;;;;;;30.80;19.80;;;;;;;;;;103713;1289;545642;-72
2024/03/04 00:08:02;;;;;;;33.50;20.60;;;;;;;;;;103784;1291;545129;-72
2024/03/04 00:11:52;;;;;;;31.70;22.60;;;;;;;;;;103816;1289;544888;-71
2024/03/04 00:15:19;;;;;;;33.00;22.10;;;;;;;;;;103807;1289;545016;-71
2024/03/04 00:19:07;;;;;;;34.00;21.80;;;;;;;;;;103839;1289;545623;-71
2024/03/04 00:22:31;;;;;;;30.80;20.70;;;;;;;;;;103828;1302;544786;-72
2024/03/04 00:26:19;;;;;;;31.00;21.00;;;;;;;;;;103871;1289;544945;-72
2024/03/04 00:29:49;;;;;;;29.40;19.90;;;;;;;;;;103805;1289;544830;-71
2024/03/04 00:33:44;;;;;;;30.90;20.40;;;;;;;;;;103708;1288;545548;-71
2024/03/04 00:37:03;;;;;;;31.50;21.60;;;;;;;;;;103568;1297;544752;-72
2024/03/04 00:40:38;;;;;;;30.90;20.20;;;;;;;;;;103772;1291;545707;-71
2024/03/04 00:44:15;;;;;;;30.40;20.20;;;;;;;;;;103716;1289;545553;-70
2024/03/04 00:47:53;;;;;;;29.70;19.40;;;;;;;;;;103558;1294;545643;-71
2024/03/04 00:51:38;;;;;;;30.80;19.80;;;;;;;;;;103747;1292;544828;-72
2024/03/04 00:55:10;;;;;;;29.20;19.80;;;;;;;;;;103628;1291;545546;-70
2024/03/04 00:58:45;;;;;;;31.60;21.10;;;;;;;;;;103780;1290;544724;-71
2024/03/04 01:02:20;;;;;;;32.10;21.20;;;;;;;;;;103630;1294;545027;-71
2024/03/04 01:06:01;;;;;;;32.60;23.10;;;;;;;;;;103806;1289;544900;-72
2024/03/04 01:09:41;;;;;;;31.30;22.40;;;;;;;;;;103874;1288;545530;-70
2024/03/04 01:13:23;;;;;;;30.60;20.60;;;;;;;;;;103729;1289;544914;-70
2024/03/04 01:16:53;;;;;;;31.20;21.10;;;;;;;;;;103728;1292;546081;-72
2024/03/04 01:20:39;;;;;;;32.20;20.10;;;;;;;;;;103643;1292;545070;-71
2024/03/04 01:24:31;;;;;;;30.40;20.20;;;;;;;;;;103784;1289;545512;-69
2024/03/04 01:27:45;;;;;;;31.00;20.10;;;;;;;;;;103534;1295;544857;-71
2024/03/04 01:31:23;;;;;;;31.70;21.20;;;;;;;;;;103738;1291;545039;-72
2024/03/04 01:35:04;;;;;;;31.70;22.20;;;;;;;;;;103775;1290;545221;-71
2024/03/04 01:39:02;;;;;;;33.20;21.40;;;;;;;;;;103729;1290;545055;-71
2024/03/04 01:42:21;;;;;;;31.00;21.00;;;;;;;;;;103721;1305;544982;-72
2024/03/04 01:45:55;;;;;;;31.60;22.10;;;;;;;;;;103761;1289;544998;-71
2024/03/04 01:49:36;;;;;;;34.60;22.20;;;;;;;;;;103686;1292;544831;-71
2024/03/04 01:53:08;;;;;;;30.40;21.90;;;;;;;;;;103770;1292;545686;-72
2024/03/04 01:57:00;;;;;;;30.30;20.60;;;;;;;;;;103463;1295;548001;-72
2024/03/04 02:00:28;;;;;;;31.00;20.10;;;;;;;;;;103726;1292;545389;-71
2024/03/04 02:04:00;;;;;;;31.10;20.50;;;;;;;;;;103738;1292;544733;-71
2024/03/04 02:07:41;;;;;;;31.20;21.60;;;;;;;;;;103672;1291;544987;-72
2024/03/04 02:11:19;;;;;;;32.80;20.90;;;;;;;;;;104108;1292;544977;-72
2024/03/04 02:14:52;;;;;;;31.10;20.50;;;;;;;;;;103759;1291;545469;-71
2024/03/04 02:18:30;;;;;;;33.10;20.50;;;;;;;;;;103878;1288;546044;-72
2024/03/04 02:22:14;;;;;;;33.00;20.10;;;;;;;;;;103544;1298;545745;-72
2024/03/04 02:26:11;;;;;;;31.30;21.90;;;;;;;;;;103728;1292;544929;-71
2024/03/04 02:29:29;;;;;;;29.10;21.60;;;;;;;;;;103775;1289;545040;-71
2024/03/04 02:33:08;;;;;;;30.70;20.70;;;;;;;;;;103810;1292;544888;-71
2024/03/04 02:36:45;;;;;;;35.40;22.70;;;;;;;;;;103752;1291;544971;-71
2024/03/04 02:40:16;;;;;;;33.70;22.20;;;;;;;;;;103876;1291;545065;-72
2024/03/04 02:44:16;;;;;;;33.60;21.30;;;;;;;;;;103696;1291;545870;-71
2024/03/04 02:47:25;;;;;;;30.80;21.00;;;;;;;;;;103804;1289;544743;-71
2024/03/04 02:51:22;;;;;;;33.10;21.10;;;;;;;;;;103851;1294;545266;-70
2024/03/04 02:55:14;;;;;;;32.50;21.70;;;;;;;;;;103986;1289;544790;-69
2024/03/04 02:58:21;;;;;;;34.00;24.20;;;;;;;;;;103359;1294;545432;-69
2024/03/04 03:01:58;;;;;;;34.70;23.80;;;;;;;;;;103520;1292;545818;-69
2024/03/04 03:05:36;;;;;;;37.90;25.00;;;;;;;;;;103517;1294;544832;-69
2024/03/04 03:09:18;;;;;;;45.00;27.10;;;;;;;;;;103514;1291;545125;-69
2024/03/04 03:12:54;;;;;;;44.10;28.80;;;;;;;;;;103695;1290;544740;-70
2024/03/04 03:16:29;;;;;;;45.20;28.70;;;;;;;;;;103665;1291;544772;-70
2024/03/04 03:20:21;;;;;;;52.50;29.30;;;;;;;;;;103736;1289;545970;-70
2024/03/04 03:24:05;;;;;;;45.10;28.60;;;;;;;;;;104526;1283;544975;-70
2024/03/04 03:27:29;;;;;;;47.10;30.00;;;;;;;;;;103694;1292;545541;-71
2024/03/04 03:31:01;;;;;;;89.50;56.70;;;;;;;;;;103356;1305;545620;-71
2024/03/04 03:34:36;;;;;;;136.40;78.80;;;;;;;;;;103871;1289;544804;-72
2024/03/04 03:38:10;;;;;;;94.90;56.40;;;;;;;;;;103524;1289;545005;-69
2024/03/04 03:41:54;;;;;;;70.60;43.50;;;;;;;;;;103418;1297;546108;-71
2024/03/04 03:45:28;;;;;;;81.20;49.70;;;;;;;;;;103722;1290;545000;-71
2024/03/04 03:49:12;;;;;;;70.50;46.80;;;;;;;;;;103624;1290;544736;-71
2024/03/04 03:53:03;;;;;;;66.80;45.30;;;;;;;;;;103645;1291;545278;-72
2024/03/04 03:56:39;;;;;;;57.60;42.40;;;;;;;;;;103686;1291;548131;-72
2024/03/04 03:59:58;;;;;;;50.60;37.00;;;;;;;;;;103711;1299;544997;-70
2024/03/04 04:03:49;;;;;;;47.60;33.30;;;;;;;;;;103445;1292;545591;-71
2024/03/04 04:07:26;;;;;;;46.40;32.70;;;;;;;;;;103617;1291;545726;-72
2024/03/04 04:10:54;;;;;;;42.90;30.20;;;;;;;;;;104311;1293;545021;-70
2024/03/04 04:14:34;;;;;;;41.00;29.40;;;;;;;;;;103710;1292;544945;-71
2024/03/04 04:18:06;;;;;;;42.70;28.40;;;;;;;;;;104238;1291;544876;-70
2024/03/04 04:21:42;;;;;;;39.10;28.50;;;;;;;;;;104047;1286;545532;-69
2024/03/04 04:25:24;;;;;;;40.90;27.70;;;;;;;;;;103252;1294;544968;-70
2024/03/04 04:28:59;;;;;;;45.70;28.90;;;;;;;;;;104243;1283;544779;-69
2024/03/04 04:32:41;;;;;;;40.30;27.70;;;;;;;;;;103566;1291;545038;-71
2024/03/04 04:36:16;;;;;;;39.10;27.10;;;;;;;;;;103679;1290;545823;-71
2024/03/04 04:39:50;;;;;;;40.50;26.90;;;;;;;;;;103655;1289;545580;-71
2024/03/04 04:43:28;;;;;;;39.10;26.20;;;;;;;;;;103765;1291;544764;-70
2024/03/04 04:47:05;;;;;;;39.60;28.00;;;;;;;;;;104065;1288;544731;-71
2024/03/04 04:50:42;;;;;;;39.70;26.60;;;;;;;;;;103543;1292;544827;-72
2024/03/04 04:54:33;;;;;;;37.60;27.30;;;;;;;;;;103658;1291;544940;-71
2024/03/04 04:57:56;;;;;;;39.10;27.70;;;;;;;;;;103750;1289;545002;-71
2024/03/04 05:01:35;;;;;;;39.70;27.60;;;;;;;;;;103696;1289;545239;-70
2024/03/04 05:05:22;;;;;;;47.10;29.20;;;;;;;;;;103679;1293;544986;-71
2024/03/04 05:08:53;;;;;;;43.40;27.00;;;;;;;;;;103686;1288;545005;-71
2024/03/04 05:12:28;;;;;;;39.20;27.40;;;;;;;;;;103895;1288;546266;-71
2024/03/04 05:16:08;;;;;;;38.40;26.40;;;;;;;;;;103453;1294;545855;-70
2024/03/04 05:19:46;;;;;;;38.50;26.00;;;;;;;;;;103810;1301;545478;-71
2024/03/04 05:23:20;;;;;;;39.80;26.10;;;;;;;;;;103604;1294;546352;-71
2024/03/04 05:27:00;;;;;;;35.90;24.60;;;;;;;;;;103662;1292;546066;-70
2024/03/04 05:30:38;;;;;;;39.40;24.00;;;;;;;;;;103752;1295;544915;-70
2024/03/04 05:34:12;;;;;;;36.50;24.00;;;;;;;;;;103667;1295;544792;-71
2024/03/04 05:37:50;;;;;;;37.40;24.70;;;;;;;;;;103757;1291;545623;-72
2024/03/04 05:41:33;;;;;;;34.90;24.10;;;;;;;;;;103751;1292;544785;-72
2024/03/04 05:45:20;;;;;;;37.40;25.80;;;;;;;;;;103910;1290;544993;-72
2024/03/04 05:48:44;;;;;;;35.20;24.20;;;;;;;;;;103715;1291;545023;-72
2024/03/04 05:52:20;;;;;;;36.50;25.30;;;;;;;;;;103592;1295;544862;-70
2024/03/04 05:56:00;;;;;;;35.70;25.40;;;;;;;;;;103716;1292;545102;-71
2024/03/04 05:59:37;;;;;;;37.10;24.80;;;;;;;;;;103787;1293;545046;-72
2024/03/04 06:03:23;;;;;;;40.40;27.90;;;;;;;;;;103627;1297;544841;-71
2024/03/04 06:06:52;;;;;;;37.70;26.70;;;;;;;;;;103296;1299;544855;-72
2024/03/04 06:10:45;;;;;;;36.70;24.90;;;;;;;;;;103692;1292;545554;-72
2024/03/04 06:14:13;;;;;;;37.30;24.60;;;;;;;;;;103562;1288;546065;-70
2024/03/04 06:17:58;;;;;;;35.60;23.40;;;;;;;;;;103507;1295;545215;-72
2024/03/04 06:21:27;;;;;;;34.10;24.10;;;;;;;;;;103735;1291;545535;-71
2024/03/04 06:25:08;;;;;;;37.50;25.10;;;;;;;;;;103793;1289;544913;-71
2024/03/04 06:28:35;;;;;;;36.50;24.40;;;;;;;;;;104339;1283;545372;-72
2024/03/04 06:32:11;;;;;;;34.80;22.60;;;;;;;;;;103689;1295;545775;-71
2024/03/04 06:35:52;;;;;;;37.30;25.00;;;;;;;;;;103727;1291;545338;-72
2024/03/04 06:39:29;;;;;;;39.10;26.30;;;;;;;;;;104125;1286;545979;-71
2024/03/04 06:43:13;;;;;;;35.50;23.40;;;;;;;;;;103672;1295;547883;-69
2024/03/04 06:46:41;;;;;;;34.40;23.90;;;;;;;;;;103596;1289;544830;-71
2024/03/04 06:50:40;;;;;;;31.70;22.00;;;;;;;;;;103695;1305;545260;-73
2024/03/04 06:53:59;;;;;;;39.40;23.20;;;;;;;;;;103781;1292;546141;-71
2024/03/04 06:57:34;;;;;;;34.20;23.30;;;;;;;;;;103796;1291;545048;-72
2024/03/04 07:01:14;;;;;;;38.00;25.50;;;;;;;;;;104157;1286;545440;-70
2024/03/04 07:04:50;;;;;;;31.70;22.30;;;;;;;;;;103771;1292;546271;-71
2024/03/04 07:08:29;;;;;;;33.60;22.60;;;;;;;;;;103697;1289;544981;-72
2024/03/04 07:12:05;;;;;;;36.60;24.60;;;;;;;;;;103767;1290;545784;-71
2024/03/04 07:15:43;;;;;;;37.90;25.40;;;;;;;;;;103751;1290;544854;-73
2024/03/04 07:19:21;;;;;;;40.90;25.90;;;;;;;;;;103699;1294;544619;-72
2024/03/04 07:23:05;;;;;;;39.90;26.00;;;;;;;;;;103780;1291;544747;-71
2024/03/04 07:26:37;;;;;;;40.30;26.80;;;;;;;;;;103778;1292;545469;-72
2024/03/04 07:30:11;;;;;;;42.90;29.10;;;;;;;;;;103886;1292;545145;-72
2024/03/04 07:33:49;;;;;;;43.60;29.90;;;;;;;;;;103771;1294;545562;-71
2024/03/04 07:37:26;;;;;;;49.60;32.60;;;;;;;;;;103565;1295;544936;-72
2024/03/04 07:41:09;;;;;;;50.20;32.00;;;;;;;;;;103742;1292;545672;-72
2024/03/04 07:44:48;;;;;;;52.30;31.90;;;;;;;;;;103780;1289;544847;-71
2024/03/04 07:48:19;;;;;;;44.70;30.80;;;;;;;;;;103524;1295;544923;-72
2024/03/04 07:51:57;;;;;;;55.80;34.60;;;;;;;;;;103851;1296;545578;-71
2024/03/04 07:55:33;;;;;;;55.90;34.70;;;;;;;;;;103840;1292;544887;-72
2024/03/04 07:59:11;;;;;;;51.40;33.90;;;;;;;;;;103852;1298;545447;-72
2024/03/04 08:02:48;;;;;;;49.30;33.00;;;;;;;;;;103556;1295;544919;-70
2024/03/04 08:06:29;;;;;;;44.00;29.90;;;;;;;;;;103812;1291;544785;-72
2024/03/04 08:10:06;;;;;;;42.00;30.80;;;;;;;;;;103894;1292;545422;-71
2024/03/04 08:13:40;;;;;;;45.10;32.60;;;;;;;;;;103906;1288;544911;-71
2024/03/04 08:17:27;;;;;;;47.30;31.20;;;;;;;;;;103836;1289;545572;-72
2024/03/04 08:20:55;;;;;;;40.30;28.00;;;;;;;;;;103866;1292;544794;-72
2024/03/04 08:24:41;;;;;;;45.00;31.00;;;;;;;;;;103996;1288;544928;-72
2024/03/04 08:28:14;;;;;;;49.30;35.50;;;;;;;;;;103814;1291;544771;-73
2024/03/04 08:31:51;;;;;;;45.80;32.80;;;;;;;;;;103802;1292;545062;-72
2024/03/04 08:35:37;;;;;;;44.50;33.40;;;;;;;;;;103687;1291;545063;-71
2024/03/04 08:39:04;;;;;;;43.80;31.90;;;;;;;;;;104022;1292;544904;-72
2024/03/04 08:42:41;;;;;;;48.10;34.10;;;;;;;;;;103937;1289;544737;-72
2024/03/04 08:46:21;;;;;;;49.60;35.10;;;;;;;;;;103681;1291;544873;-70
2024/03/04 08:50:01;;;;;;;51.20;34.20;;;;;;;;;;103449;1298;547796;-71
2024/03/04 08:53:29;;;;;;;52.60;35.60;;;;;;;;;;103841;1289;544766;-72
2024/03/04 08:57:24;;;;;;;49.90;33.20;;;;;;;;;;103943;1290;545033;-72
2024/03/04 09:01:02;;;;;;;47.50;33.40;;;;;;;;;;103867;1288;545718;-72
2024/03/04 09:04:31;;;;;;;44.20;31.60;;;;;;;;;;103837;1289;544729;-72
2024/03/04 09:08:07;;;;;;;52.60;35.80;;;;;;;;;;103798;1292;545343;-72
2024/03/04 09:11:41;;;;;;;49.20;34.00;;;;;;;;;;103995;1288;545051;-71
2024/03/04 09:15:22;;;;;;;47.60;32.10;;;;;;;;;;103788;1291;544995;-71
2024/03/04 09:18:55;;;;;;;49.10;35.00;;;;;;;;;;103949;1299;544804;-72
2024/03/04 09:22:33;;;;;;;48.30;34.00;;;;;;;;;;103788;1291;545481;-71
2024/03/04 09:26:10;;;;;;;46.70;33.60;;;;;;;;;;103795;1291;545521;-72
2024/03/04 09:29:47;;;;;;;47.70;33.60;;;;;;;;;;104441;1285;544801;-71
2024/03/04 09:33:24;;;;;;;47.40;34.60;;;;;;;;;;103694;1291;545155;-72
2024/03/04 09:37:03;;;;;;;48.80;35.40;;;;;;;;;;103797;1294;544841;-72
2024/03/04 09:40:43;;;;;;;56.80;40.00;;;;;;;;;;103888;1291;545054;-72
2024/03/04 09:44:18;;;;;;;53.50;38.00;;;;;;;;;;103791;1289;544803;-72
2024/03/04 09:48:02;;;;;;;62.40;44.20;;;;;;;;;;103805;1289;544808;-73
2024/03/04 09:51:34;;;;;;;68.10;47.60;;;;;;;;;;103718;1289;544695;-73
2024/03/04 09:55:06;;;;;;;75.60;51.50;;;;;;;;;;104064;1292;544787;-73
2024/03/04 09:58:48;;;;;;;71.30;51.00;;;;;;;;;;103702;1292;544811;-72
2024/03/04 10:02:21;;;;;;;45.70;34.40;;;;;;;;;;103838;1288;545034;-71
2024/03/04 10:06:05;;;;;;;46.40;34.90;;;;;;;;;;103812;1290;544733;-73
2024/03/04 10:09:39;;;;;;;48.70;35.80;;;;;;;;;;103687;1291;545241;-71
2024/03/04 10:13:21;;;;;;;42.40;32.70;;;;;;;;;;103942;1291;545442;-72
2024/03/04 10:16:55;;;;;;;48.40;33.00;;;;;;;;;;103789;1291;544986;-72
2024/03/04 10:20:32;;;;;;;44.70;33.50;;;;;;;;;;103792;1303;545826;-72
2024/03/04 10:24:12;;;;;;;44.70;34.80;;;;;;;;;;103662;1291;545758;-73
2024/03/04 10:27:49;;;;;;;45.30;34.50;;;;;;;;;;103843;1291;545426;-73
2024/03/04 10:31:24;;;;;;;43.00;33.00;;;;;;;;;;103852;1292;545087;-74
2024/03/04 10:35:04;;;;;;;44.00;33.30;;;;;;;;;;103692;1291;545511;-72
2024/03/04 10:38:41;;;;;;;44.30;34.10;;;;;;;;;;104537;1282;545881;-74
2024/03/04 10:42:17;;;;;;;45.30;35.20;;;;;;;;;;103883;1289;544918;-72
2024/03/04 10:45:53;;;;;;;43.20;34.70;;;;;;;;;;104000;1289;545462;-73
2024/03/04 10:49:32;;;;;;;45.00;35.20;;;;;;;;;;103981;1288;544916;-72
2024/03/04 10:53:09;;;;;;;42.50;34.00;;;;;;;;;;103522;1306;546150;-72
2024/03/04 10:56:53;;;;;;;45.40;35.60;;;;;;;;;;103843;1289;545260;-71
2024/03/04 11:04:04;;;;;;;44.20;35.90;;;;;;;;;;104446;1288;544818;-73
2024/03/04 11:07:42;;;;;;;47.10;36.60;;;;;;;;;;104046;1289;545032;-74
2024/03/04 11:11:17;;;;;;;45.40;34.90;;;;;;;;;;103921;1289;545218;-73
2024/03/04 11:15:04;;;;;;;42.50;33.40;;;;;;;;;;103673;1289;545887;-72
2024/03/04 11:18:44;;;;;;;46.80;37.70;;;;;;;;;;104584;1283;545862;-73
2024/03/04 11:22:06;;;;;;;44.60;36.30;;;;;;;;;;103953;1288;545485;-71
2024/03/04 11:25:46;;;;;;;48.00;38.20;;;;;;;;;;103737;1289;544751;-72
2024/03/04 11:29:26;;;;;;;47.00;37.50;;;;;;;;;;103811;1289;545522;-73
2024/03/04 11:33:20;;;;;;;40.20;32.10;;;;;;;;;;103767;1292;545069;-72
2024/03/04 11:36:39;;;;;;;43.30;35.50;;;;;;;;;;103785;1292;544797;-72
2024/03/04 11:40:18;;;;;;;45.60;37.50;;;;;;;;;;103873;1291;545506;-72
2024/03/04 11:43:54;;;;;;;47.40;36.60;;;;;;;;;;103575;1295;545452;-72
2024/03/04 11:47:36;;;;;;;44.60;37.00;;;;;;;;;;104026;1288;544817;-73
2024/03/04 11:51:09;;;;;;;40.80;34.40;;;;;;;;;;103771;1289;545060;-73
2024/03/04 11:54:49;;;;;;;41.50;34.50;;;;;;;;;;103770;1292;544957;-73
2024/03/04 11:58:24;;;;;;;44.20;35.70;;;;;;;;;;103789;1291;544931;-70
2024/03/04 12:02:08;;;;;;;42.10;35.70;;;;;;;;;;103830;1292;544911;-72
2024/03/04 12:05:42;;;;;;;44.30;34.60;;;;;;;;;;103919;1292;544961;-71
2024/03/04 12:09:17;;;;;;;41.10;34.20;;;;;;;;;;103802;1291;545960;-73
2024/03/04 12:12:54;;;;;;;36.60;31.70;;;;;;;;;;103634;1295;545477;-72
2024/03/04 12:16:32;;;;;;;45.80;36.00;;;;;;;;;;103716;1292;544843;-72
2024/03/04 12:20:08;;;;;;;46.20;37.30;;;;;;;;;;103953;1288;544983;-72
2024/03/04 12:23:46;;;;;;;36.40;30.60;;;;;;;;;;103694;1292;544975;-72
2024/03/04 12:27:24;;;;;;;37.90;33.00;;;;;;;;;;103772;1289;544888;-73
2024/03/04 12:31:01;;;;;;;38.20;34.00;;;;;;;;;;103953;1288;544975;-72
2024/03/04 12:34:38;;;;;;;40.70;34.20;;;;;;;;;;103757;1293;544738;-73
2024/03/04 12:38:16;;;;;;;36.30;31.80;;;;;;;;;;103733;1295;545323;-73
2024/03/04 12:41:53;;;;;;;36.30;31.70;;;;;;;;;;103831;1291;544802;-73
2024/03/04 12:45:31;;;;;;;37.00;31.50;;;;;;;;;;103791;1302;544790;-71
2024/03/04 12:49:04;;;;;;;37.10;30.80;;;;;;;;;;104102;1286;544835;-73
2024/03/04 12:52:46;;;;;;;38.20;30.00;;;;;;;;;;103743;1292;546350;-73
2024/03/04 12:56:23;;;;;;;32.40;26.60;;;;;;;;;;103587;1295;545562;-73
2024/03/04 13:00:03;;;;;;;32.00;27.60;;;;;;;;;;103895;1292;544741;-72
2024/03/04 13:03:37;;;;;;;34.70;29.40;;;;;;;;;;103805;1292;545389;-73
2024/03/04 13:07:15;;;;;;;86.00;45.40;;;;;;;;;;103801;1292;544804;-72
2024/03/04 13:10:52;;;;;;;48.10;33.00;;;;;;;;;;103719;1291;544982;-73
2024/03/04 13:14:33;;;;;;;33.70;26.70;;;;;;;;;;103855;1292;545772;-73
2024/03/04 13:18:11;;;;;;;32.80;24.80;;;;;;;;;;103849;1292;544772;-73
2024/03/04 13:21:45;;;;;;;31.90;25.70;;;;;;;;;;103784;1289;545209;-72
2024/03/04 13:25:22;;;;;;;33.70;24.20;;;;;;;;;;104008;1289;545360;-72
2024/03/04 13:28:59;;;;;;;32.50;25.40;;;;;;;;;;104777;1282;544804;-72
2024/03/04 13:32:53;;;;;;;36.20;28.90;;;;;;;;;;103959;1291;548735;-75
2024/03/04 13:36:15;;;;;;;37.10;29.50;;;;;;;;;;104094;1288;545053;-72
2024/03/04 13:39:52;;;;;;;37.60;31.30;;;;;;;;;;103774;1289;544999;-74
2024/03/04 13:43:30;;;;;;;47.00;37.20;;;;;;;;;;103807;1291;544763;-69
2024/03/04 13:47:08;;;;;;;41.70;34.10;;;;;;;;;;103929;1292;544786;-71
2024/03/04 13:50:44;;;;;;;43.50;34.00;;;;;;;;;;103798;1292;544717;-72
2024/03/04 13:54:22;;;;;;;47.90;38.00;;;;;;;;;;103626;1292;545083;-73
2024/03/04 13:57:59;;;;;;;46.70;38.40;;;;;;;;;;103821;1292;544875;-71
2024/03/04 14:01:38;;;;;;;49.70;40.20;;;;;;;;;;103738;1292;544871;-73
2024/03/04 14:05:15;;;;;;;43.90;36.90;;;;;;;;;;103791;1290;544793;-73
2024/03/04 14:08:53;;;;;;;54.30;44.60;;;;;;;;;;103534;1294;544987;-72
2024/03/04 14:12:30;;;;;;;47.00;38.00;;;;;;;;;;103777;1290;544885;-72
2024/03/04 14:16:08;;;;;;;46.00;38.60;;;;;;;;;;103780;1290;545771;-72
2024/03/04 14:19:45;;;;;;;51.20;38.60;;;;;;;;;;104186;1298;544917;-73
2024/03/04 14:23:25;;;;;;;55.30;44.80;;;;;;;;;;103717;1295;544999;-72
2024/03/04 14:27:05;;;;;;;50.80;42.20;;;;;;;;;;103928;1288;544963;-72
2024/03/04 14:30:50;;;;;;;58.00;44.90;;;;;;;;;;103455;1297;544918;-72
2024/03/04 14:34:15;;;;;;;71.30;52.10;;;;;;;;;;103781;1291;545430;-73
2024/03/04 14:37:52;;;;;;;56.70;44.90;;;;;;;;;;103504;1295;544825;-73
2024/03/04 14:41:30;;;;;;;62.50;46.90;;;;;;;;;;103748;1293;544746;-71
2024/03/04 14:45:07;;;;;;;56.00;46.00;;;;;;;;;;103730;1292;544959;-72
2024/03/04 14:48:55;;;;;;;;;;;;;;;;;;;;;
2024/03/04 14:52:32;;;;;;;53.20;43.90;;;;;;;;;;103766;1301;546243;-73
2024/03/04 14:55:59;;;;;;;71.00;53.70;;;;;;;;;;103759;1290;545467;-72
2024/03/04 14:59:37;;;;;;;79.60;57.70;;;;;;;;;;103572;1295;544968;-73
2024/03/04 15:03:14;;;;;;;62.10;47.80;;;;;;;;;;103807;1289;544806;-73
2024/03/04 15:17:19;;;;;;;68.00;48.40;;;;;;;;;;104096;1285;550045;-72
2024/03/04 15:20:11;;;;;;;64.80;49.10;;;;;;;;;;104031;1289;545296;-72
2024/03/04 15:23:49;;;;;;;65.60;50.20;;;;;;;;;;103808;1292;544943;-71
2024/03/04 15:27:27;;;;;;;86.20;58.50;;;;;;;;;;103919;1289;544968;-71
2024/03/04 15:31:06;;;;;;;78.10;55.20;;;;;;;;;;103898;1290;545852;-72
2024/03/04 15:34:40;;;;;;;77.20;57.50;;;;;;;;;;103934;1288;545068;-72
2024/03/04 15:38:19;;;;;;;77.10;54.70;;;;;;;;;;103455;1289;545008;-70
2024/03/04 15:41:55;;;;;;;78.80;60.10;;;;;;;;;;103738;1291;545801;-71
2024/03/04 15:45:34;;;;;;;67.20;48.90;;;;;;;;;;104387;1287;544979;-72
2024/03/04 15:49:14;;;;;;;62.50;46.10;;;;;;;;;;103427;1289;545009;-72
2024/03/04 15:52:51;;;;;;;61.90;47.70;;;;;;;;;;103745;1291;545689;-70
2024/03/04 15:56:32;;;;;;;64.10;49.00;;;;;;;;;;103802;1293;544957;-71
2024/03/04 15:59:59;;;;;;;63.10;47.40;;;;;;;;;;103940;1290;545074;-70
2024/03/04 16:03:44;;;;;;;57.70;44.00;;;;;;;;;;103836;1294;545012;-72
2024/03/04 16:07:18;;;;;;;60.10;44.40;;;;;;;;;;104033;1293;545072;-71
2024/03/04 16:10:55;;;;;;;77.60;51.80;;;;;;;;;;103822;1290;544975;-71
2024/03/04 16:14:34;;;;;;;63.50;47.00;;;;;;;;;;103987;1295;544892;-71
2024/03/04 16:18:21;;;;;;;65.60;50.00;;;;;;;;;;103955;1291;546069;-71
2024/03/04 16:21:48;;;;;;;62.90;47.50;;;;;;;;;;104166;1289;545902;-71
2024/03/04 16:25:26;;;;;;;63.50;47.60;;;;;;;;;;103895;1291;545065;-72
2024/03/04 16:29:03;;;;;;;64.50;47.00;;;;;;;;;;103472;1294;545422;-72
2024/03/04 16:32:40;;;;;;;78.40;54.20;;;;;;;;;;104133;1289;545030;-72
2024/03/04 16:36:14;;;;;;;79.10;54.90;;;;;;;;;;103794;1291;545118;-72
2024/03/04 16:39:56;;;;;;;66.20;44.00;;;;;;;;;;104017;1290;546720;-72
2024/03/04 16:43:30;;;;;;;69.30;50.20;;;;;;;;;;104746;1283;544828;-71
2024/03/04 16:47:11;;;;;;;118.10;83.80;;;;;;;;;;103595;1291;545094;-71
2024/03/04 16:50:48;;;;;;;100.20;69.60;;;;;;;;;;103604;1291;545555;-71
2024/03/04 16:54:29;;;;;;;128.30;98.10;;;;;;;;;;103790;1293;544711;-72
2024/03/04 16:58:05;;;;;;;94.80;62.60;;;;;;;;;;103815;1289;544849;-73
2024/03/04 17:02:03;;;;;;;118.90;77.40;;;;;;;;;;103885;1288;545012;-69
2024/03/04 17:05:18;;;;;;;117.30;82.40;;;;;;;;;;104109;1286;544794;-72
2024/03/04 17:08:56;;;;;;;105.70;66.70;;;;;;;;;;103999;1292;544982;-69
2024/03/04 17:12:35;;;;;;;77.10;51.00;;;;;;;;;;103896;1293;545092;-71
2024/03/04 17:16:11;;;;;;;117.80;76.80;;;;;;;;;;103911;1291;544817;-73
2024/03/04 17:20:12;;;;;;;107.60;67.20;;;;;;;;;;103807;1289;547790;-72
2024/03/04 17:23:21;;;;;;;80.80;52.20;;;;;;;;;;103910;1289;544757;-71
2024/03/04 17:27:03;;;;;;;104.70;61.90;;;;;;;;;;103750;1290;544965;-72
2024/03/04 17:31:03;;;;;;;94.80;55.20;;;;;;;;;;103882;1291;545089;-73
2024/03/04 17:34:17;;;;;;;74.40;47.20;;;;;;;;;;103742;1294;545035;-72
2024/03/04 17:37:55;;;;;;;69.00;45.70;;;;;;;;;;103974;1295;544889;-71
2024/03/04 17:41:28;;;;;;;76.20;45.60;;;;;;;;;;103742;1292;545326;-71
2024/03/04 17:45:13;;;;;;;70.30;48.20;;;;;;;;;;103811;1292;545509;-72
2024/03/04 17:48:48;;;;;;;76.50;49.50;;;;;;;;;;103702;1304;545072;-71
2024/03/04 17:52:25;;;;;;;85.70;51.20;;;;;;;;;;103847;1291;545340;-73
2024/03/04 17:56:08;;;;;;;93.30;57.00;;;;;;;;;;103372;1294;545319;-71
2024/03/04 17:59:40;;;;;;;71.40;48.00;;;;;;;;;;103802;1301;545613;-73
2024/03/04 18:03:17;;;;;;;111.40;67.80;;;;;;;;;;103748;1288;545401;-72
2024/03/04 18:06:54;;;;;;;88.90;55.00;;;;;;;;;;103750;1292;545646;-70
2024/03/04 18:10:34;;;;;;;70.10;45.30;;;;;;;;;;103872;1289;546006;-71
2024/03/04 18:14:14;;;;;;;70.30;48.50;;;;;;;;;;103744;1291;545034;-72
2024/03/04 18:17:50;;;;;;;72.70;47.40;;;;;;;;;;104097;1285;545032;-72
2024/03/04 18:21:27;;;;;;;71.40;49.00;;;;;;;;;;103806;1291;544960;-73
2024/03/04 18:25:02;;;;;;;78.30;49.70;;;;;;;;;;103720;1292;545531;-70
2024/03/04 18:28:42;;;;;;;63.20;45.40;;;;;;;;;;103992;1291;546415;-71
2024/03/04 18:32:30;;;;;;;70.30;47.20;;;;;;;;;;103737;1295;545853;-72
2024/03/04 18:35:54;;;;;;;63.10;44.10;;;;;;;;;;103836;1291;545702;-71
2024/03/04 18:39:31;;;;;;;76.10;53.20;;;;;;;;;;103826;1295;544827;-71
2024/03/04 18:43:13;;;;;;;82.80;58.90;;;;;;;;;;103759;1289;546044;-70
2024/03/04 18:46:47;;;;;;;89.60;59.00;;;;;;;;;;104010;1289;545469;-71
2024/03/04 18:50:21;;;;;;;74.90;52.00;;;;;;;;;;103856;1292;545495;-72
2024/03/04 18:54:01;;;;;;;62.60;46.40;;;;;;;;;;103761;1292;545439;-71
2024/03/04 18:57:39;;;;;;;58.50;43.30;;;;;;;;;;103475;1293;544917;-72
2024/03/04 19:01:26;;;;;;;58.60;44.30;;;;;;;;;;103688;1289;544835;-73
2024/03/04 19:05:14;;;;;;;67.70;49.50;;;;;;;;;;103748;1289;547934;-72
2024/03/04 19:08:34;;;;;;;66.90;48.10;;;;;;;;;;103736;1292;544707;-71
2024/03/04 19:12:20;;;;;;;66.80;47.30;;;;;;;;;;103708;1292;545825;-72
2024/03/04 19:15:46;;;;;;;65.30;47.30;;;;;;;;;;103845;1288;544880;-72
2024/03/04 19:19:24;;;;;;;64.90;47.30;;;;;;;;;;103897;1292;545923;-72
2024/03/04 19:23:04;;;;;;;67.40;47.20;;;;;;;;;;103709;1293;545480;-72
2024/03/04 19:26:38;;;;;;;67.50;49.00;;;;;;;;;;103863;1289;545613;-71
2024/03/04 19:30:17;;;;;;;124.10;69.30;;;;;;;;;;103864;1303;545541;-72
2024/03/04 19:33:53;;;;;;;105.40;62.50;;;;;;;;;;103729;1294;545097;-72
2024/03/04 19:37:32;;;;;;;103.50;63.20;;;;;;;;;;103771;1292;544982;-73
2024/03/04 19:41:07;;;;;;;77.30;51.10;;;;;;;;;;103902;1289;545428;-72
2024/03/04 19:44:47;;;;;;;88.40;52.00;;;;;;;;;;103764;1295;544955;-70
2024/03/04 19:48:24;;;;;;;145.90;77.70;;;;;;;;;;103901;1292;544971;-72
2024/03/04 19:52:03;;;;;;;124.00;73.30;;;;;;;;;;103803;1289;545272;-73
2024/03/04 19:55:52;;;;;;;82.20;53.10;;;;;;;;;;103749;1291;545201;-73
2024/03/04 19:59:16;;;;;;;69.50;46.60;;;;;;;;;;103695;1293;545128;-73
2024/03/04 20:02:56;;;;;;;64.70;42.30;;;;;;;;;;103725;1292;545488;-72
2024/03/04 20:06:31;;;;;;;65.50;45.20;;;;;;;;;;103628;1291;544752;-72
2024/03/04 20:10:18;;;;;;;66.30;44.80;;;;;;;;;;103656;1293;546164;-71
2024/03/04 20:13:48;;;;;;;96.00;59.90;;;;;;;;;;103489;1290;544787;-72
2024/03/04 20:17:26;;;;;;;82.00;50.90;;;;;;;;;;103684;1304;544814;-72
2024/03/04 20:21:04;;;;;;;80.60;52.20;;;;;;;;;;103411;1292;545913;-72
2024/03/04 20:24:42;;;;;;;83.40;52.40;;;;;;;;;;103433;1292;545133;-71
2024/03/04 20:28:16;;;;;;;78.20;48.80;;;;;;;;;;103476;1290;545416;-71
2024/03/04 20:31:53;;;;;;;70.60;46.20;;;;;;;;;;103560;1291;546100;-72
2024/03/04 20:35:31;;;;;;;68.30;43.80;;;;;;;;;;103648;1291;545059;-73
2024/03/04 20:39:11;;;;;;;65.60;43.40;;;;;;;;;;103644;1295;544733;-72
2024/03/04 20:42:49;;;;;;;64.20;44.20;;;;;;;;;;103661;1295;545038;-72